sensor_id;sensor_type;location;lat;lon;timestamp;temperature;humidity
3986;DHT22;2007;48.750;9.278;2023-11-25T00:01:09;14.70;54.50
3986;DHT22;2007;48.750;9.278;2023-11-25T00:03:38;14.70;54.50
3986;DHT22;2007;48.750;9.278;2023-11-25T00:06:07;14.70;54.50
3986;DHT22;2007;48.750;9.278;2023-11-25T00:08:35;14.70;54.50
3986;DHT22;2007;48.750;9.278;2023-11-25T00:11:03;14.70;54.50
3986;DHT22;2007;48.750;9.278;2023-11-25T00:13:49;14.70;54.50
3986;DHT22;2007;48.750;9.278;2023-11-25T00:16:17;14.70;54.50
3986;DHT22;2007;48.750;9.278;2023-11-25T00:18:46;14.70;54.50
3986;DHT22;2007;48.750;9.278;2023-11-25T00:21:14;14.70;54.50
3986;DHT22;2007;48.750;9.278;2023-11-25T00:23:42;14.70;54.50
3986;DHT22;2007;48.750;9.278;2023-11-25T00:26:10;14.70;54.50
3986;DHT22;2007;48.750;9.278;2023-11-25T00:28:39;14.70;54.50
3986;DHT22;2007;48.750;9.278;2023-11-25T00:31:08;14.70;54.50
3986;DHT22;2007;48.750;9.278;2023-11-25T00:33:38;14.70;54.50
3986;DHT22;2007;48.750;9.278;2023-11-25T00:36:06;14.70;54.50
3986;DHT22;2007;48.750;9.278;2023-11-25T00:38:34;14.70;54.50
3986;DHT22;2007;48.750;9.278;2023-11-25T00:41:02;14.70;54.50
3986;DHT22;2007;48.750;9.278;2023-11-25T00:43:32;14.70;54.50
3986;DHT22;2007;48.750;9.278;2023-11-25T00:46:00;14.70;54.50
3986;DHT22;2007;48.750;9.278;2023-11-25T00:48:31;14.70;54.50
3986;DHT22;2007;48.750;9.278;2023-11-25T00:51:02;14.70;54.50
3986;DHT22;2007;48.750;9.278;2023-11-25T00:53:30;14.70;54.50
3986;DHT22;2007;48.750;9.278;2023-11-25T00:56:00;14.70;54.50
3986;DHT22;2007;48.750;9.278;2023-11-25T00:58:28;14.70;54.50
3986;DHT22;2007;48.750;9.278;2023-11-25T01:00:56;14.70;54.50
3986;DHT22;2007;48.750;9.278;2023-11-25T01:03:24;14.70;54.50
3986;DHT22;2007;48.750;9.278;2023-11-25T01:05:55;14.70;54.50
3986;DHT22;2007;48.750;9.278;2023-11-25T01:08:23;14.70;54.50
3986;DHT22;2007;48.750;9.278;2023-11-25T01:10:53;14.70;54.50
3986;DHT22;2007;48.750;9.278;2023-11-25T01:13:21;14.70;54.50
3986;DHT22;2007;48.750;9.278;2023-11-25T01:15:49;14.70;55.10
3986;DHT22;2007;48.750;9.278;2023-11-25T01:18:18;14.70;54.50
3986;DHT22;2007;48.750;9.278;2023-11-25T01:20:46;14.70;54.50
3986;DHT22;2007;48.750;9.278;2023-11-25T01:23:15;14.70;54.50
3986;DHT22;2007;48.750;9.278;2023-11-25T01:25:43;14.70;54.50
3986;DHT22;2007;48.750;9.278;2023-11-25T01:28:11;14.70;54.50
3986;DHT22;2007;48.750;9.278;2023-11-25T01:30:39;14.70;54.40
3986;DHT22;2007;48.750;9.278;2023-11-25T01:33:07;14.70;54.50
3986;DHT22;2007;48.750;9.278;2023-11-25T01:35:36;14.70;54.40
3986;DHT22;2007;48.750;9.278;2023-11-25T01:38:05;14.70;54.40
3986;DHT22;2007;48.750;9.278;2023-11-25T01:40:35;14.70;54.40
3986;DHT22;2007;48.750;9.278;2023-11-25T01:43:06;14.70;54.40
3986;DHT22;2007;48.750;9.278;2023-11-25T01:45:34;14.70;54.40
3986;DHT22;2007;48.750;9.278;2023-11-25T01:48:04;14.70;54.40
3986;DHT22;2007;48.750;9.278;2023-11-25T01:50:33;14.70;54.40
3986;DHT22;2007;48.750;9.278;2023-11-25T01:53:04;14.70;54.40
3986;DHT22;2007;48.750;9.278;2023-11-25T01:55:35;14.70;54.40
3986;DHT22;2007;48.750;9.278;2023-11-25T01:58:03;14.70;54.40
3986;DHT22;2007;48.750;9.278;2023-11-25T02:00:33;14.70;54.30
3986;DHT22;2007;48.750;9.278;2023-11-25T02:03:01;14.70;54.40
3986;DHT22;2007;48.750;9.278;2023-11-25T02:05:30;14.70;54.40
3986;DHT22;2007;48.750;9.278;2023-11-25T02:07:58;14.60;54.30
3986;DHT22;2007;48.750;9.278;2023-11-25T02:10:28;14.70;54.30
3986;DHT22;2007;48.750;9.278;2023-11-25T02:12:58;14.60;54.30
3986;DHT22;2007;48.750;9.278;2023-11-25T02:15:26;14.70;54.40
3986;DHT22;2007;48.750;9.278;2023-11-25T02:17:55;14.60;54.30
3986;DHT22;2007;48.750;9.278;2023-11-25T02:20:30;14.60;54.30
3986;DHT22;2007;48.750;9.278;2023-11-25T02:22:59;14.60;54.30
3986;DHT22;2007;48.750;9.278;2023-11-25T02:25:28;14.60;54.30
3986;DHT22;2007;48.750;9.278;2023-11-25T02:27:56;14.60;54.30
3986;DHT22;2007;48.750;9.278;2023-11-25T02:30:25;14.60;54.30
3986;DHT22;2007;48.750;9.278;2023-11-25T02:32:53;14.60;54.30
3986;DHT22;2007;48.750;9.278;2023-11-25T02:35:21;14.60;54.30
3986;DHT22;2007;48.750;9.278;2023-11-25T02:37:49;14.60;54.30
3986;DHT22;2007;48.750;9.278;2023-11-25T02:40:18;14.60;54.30
3986;DHT22;2007;48.750;9.278;2023-11-25T02:42:46;14.60;54.30
3986;DHT22;2007;48.750;9.278;2023-11-25T02:45:16;14.60;54.30
3986;DHT22;2007;48.750;9.278;2023-11-25T02:47:45;14.60;54.30
3986;DHT22;2007;48.750;9.278;2023-11-25T02:50:14;14.60;54.30
3986;DHT22;2007;48.750;9.278;2023-11-25T02:52:42;14.60;54.30
3986;DHT22;2007;48.750;9.278;2023-11-25T02:55:11;14.60;54.30
3986;DHT22;2007;48.750;9.278;2023-11-25T02:57:42;14.60;54.30
3986;DHT22;2007;48.750;9.278;2023-11-25T03:00:11;14.60;54.30
3986;DHT22;2007;48.750;9.278;2023-11-25T03:02:45;14.60;54.30
3986;DHT22;2007;48.750;9.278;2023-11-25T03:05:13;14.60;54.30
3986;DHT22;2007;48.750;9.278;2023-11-25T03:07:41;14.60;54.30
3986;DHT22;2007;48.750;9.278;2023-11-25T03:10:09;14.60;54.30
3986;DHT22;2007;48.750;9.278;2023-11-25T03:12:41;14.60;54.30
3986;DHT22;2007;48.750;9.278;2023-11-25T03:15:15;14.60;54.30
3986;DHT22;2007;48.750;9.278;2023-11-25T03:17:43;14.60;54.30
3986;DHT22;2007;48.750;9.278;2023-11-25T03:20:11;14.60;54.30
3986;DHT22;2007;48.750;9.278;2023-11-25T03:22:39;14.60;54.30
3986;DHT22;2007;48.750;9.278;2023-11-25T03:25:08;14.60;54.30
3986;DHT22;2007;48.750;9.278;2023-11-25T03:27:36;14.60;54.30
3986;DHT22;2007;48.750;9.278;2023-11-25T03:30:06;14.60;54.30
3986;DHT22;2007;48.750;9.278;2023-11-25T03:32:34;14.60;54.30
3986;DHT22;2007;48.750;9.278;2023-11-25T03:35:03;14.60;54.30
3986;DHT22;2007;48.750;9.278;2023-11-25T03:37:33;14.60;54.30
3986;DHT22;2007;48.750;9.278;2023-11-25T03:40:01;14.60;54.30
3986;DHT22;2007;48.750;9.278;2023-11-25T03:42:34;14.60;54.30
3986;DHT22;2007;48.750;9.278;2023-11-25T03:45:02;14.60;54.30
3986;DHT22;2007;48.750;9.278;2023-11-25T03:47:32;14.60;54.30
3986;DHT22;2007;48.750;9.278;2023-11-25T03:50:00;14.60;54.20
3986;DHT22;2007;48.750;9.278;2023-11-25T03:52:29;14.60;54.20
3986;DHT22;2007;48.750;9.278;2023-11-25T03:54:57;14.60;54.20
3986;DHT22;2007;48.750;9.278;2023-11-25T03:57:25;14.60;54.20
3986;DHT22;2007;48.750;9.278;2023-11-25T03:59:53;14.60;54.20
3986;DHT22;2007;48.750;9.278;2023-11-25T04:02:21;14.60;54.20
3986;DHT22;2007;48.750;9.278;2023-11-25T04:04:51;14.60;54.20
3986;DHT22;2007;48.750;9.278;2023-11-25T04:07:19;14.60;54.80
3986;DHT22;2007;48.750;9.278;2023-11-25T04:09:47;14.60;54.20
3986;DHT22;2007;48.750;9.278;2023-11-25T04:12:15;14.60;54.20
3986;DHT22;2007;48.750;9.278;2023-11-25T04:14:43;14.60;54.20
3986;DHT22;2007;48.750;9.278;2023-11-25T04:17:11;14.60;54.20
3986;DHT22;2007;48.750;9.278;2023-11-25T04:19:40;14.60;54.20
3986;DHT22;2007;48.750;9.278;2023-11-25T04:22:09;14.60;54.20
3986;DHT22;2007;48.750;9.278;2023-11-25T04:24:37;14.60;54.20
3986;DHT22;2007;48.750;9.278;2023-11-25T04:27:06;14.60;54.20
3986;DHT22;2007;48.750;9.278;2023-11-25T04:29:34;14.60;54.20
3986;DHT22;2007;48.750;9.278;2023-11-25T04:32:02;14.60;54.20
3986;DHT22;2007;48.750;9.278;2023-11-25T04:34:31;14.60;54.20
3986;DHT22;2007;48.750;9.278;2023-11-25T04:36:59;14.60;54.20
3986;DHT22;2007;48.750;9.278;2023-11-25T04:39:28;14.60;54.20
3986;DHT22;2007;48.750;9.278;2023-11-25T04:41:56;14.60;54.20
3986;DHT22;2007;48.750;9.278;2023-11-25T04:44:24;14.60;54.10
3986;DHT22;2007;48.750;9.278;2023-11-25T04:46:52;14.60;54.20
3986;DHT22;2007;48.750;9.278;2023-11-25T04:49:20;14.60;54.20
3986;DHT22;2007;48.750;9.278;2023-11-25T04:51:49;14.50;54.00
3986;DHT22;2007;48.750;9.278;2023-11-25T04:54:17;14.50;54.00
3986;DHT22;2007;48.750;9.278;2023-11-25T04:56:46;14.50;54.00
3986;DHT22;2007;48.750;9.278;2023-11-25T04:59:14;14.50;54.00
3986;DHT22;2007;48.750;9.278;2023-11-25T05:01:42;14.50;54.00
3986;DHT22;2007;48.750;9.278;2023-11-25T05:04:10;14.50;54.00
3986;DHT22;2007;48.750;9.278;2023-11-25T05:06:38;14.50;54.00
3986;DHT22;2007;48.750;9.278;2023-11-25T05:09:11;14.50;54.00
3986;DHT22;2007;48.750;9.278;2023-11-25T05:11:40;14.50;54.00
3986;DHT22;2007;48.750;9.278;2023-11-25T05:14:09;14.50;54.00
3986;DHT22;2007;48.750;9.278;2023-11-25T05:16:38;14.50;54.00
3986;DHT22;2007;48.750;9.278;2023-11-25T05:19:06;14.50;54.00
3986;DHT22;2007;48.750;9.278;2023-11-25T05:21:34;14.50;54.00
3986;DHT22;2007;48.750;9.278;2023-11-25T05:24:03;14.50;54.00
3986;DHT22;2007;48.750;9.278;2023-11-25T05:26:31;14.50;54.00
3986;DHT22;2007;48.750;9.278;2023-11-25T05:28:59;14.60;54.10
3986;DHT22;2007;48.750;9.278;2023-11-25T05:31:28;14.50;54.00
3986;DHT22;2007;48.750;9.278;2023-11-25T05:33:56;14.50;54.00
3986;DHT22;2007;48.750;9.278;2023-11-25T05:36:24;14.50;54.00
3986;DHT22;2007;48.750;9.278;2023-11-25T05:38:52;14.50;54.00
3986;DHT22;2007;48.750;9.278;2023-11-25T05:41:21;14.50;54.00
3986;DHT22;2007;48.750;9.278;2023-11-25T05:43:50;14.50;54.00
3986;DHT22;2007;48.750;9.278;2023-11-25T05:46:22;14.50;54.00
3986;DHT22;2007;48.750;9.278;2023-11-25T05:48:53;14.50;54.00
3986;DHT22;2007;48.750;9.278;2023-11-25T05:51:21;14.50;54.00
3986;DHT22;2007;48.750;9.278;2023-11-25T05:53:49;14.50;54.00
3986;DHT22;2007;48.750;9.278;2023-11-25T05:56:17;14.50;54.00
3986;DHT22;2007;48.750;9.278;2023-11-25T05:58:48;14.50;54.00
3986;DHT22;2007;48.750;9.278;2023-11-25T06:01:17;14.50;54.00
3986;DHT22;2007;48.750;9.278;2023-11-25T06:03:45;14.50;54.00
3986;DHT22;2007;48.750;9.278;2023-11-25T06:06:15;14.50;54.00
3986;DHT22;2007;48.750;9.278;2023-11-25T06:08:43;14.50;54.00
3986;DHT22;2007;48.750;9.278;2023-11-25T06:11:18;14.50;54.00
3986;DHT22;2007;48.750;9.278;2023-11-25T06:13:46;14.50;54.00
3986;DHT22;2007;48.750;9.278;2023-11-25T06:16:15;14.50;54.00
3986;DHT22;2007;48.750;9.278;2023-11-25T06:18:43;14.50;54.00
3986;DHT22;2007;48.750;9.278;2023-11-25T06:21:11;14.50;54.00
3986;DHT22;2007;48.750;9.278;2023-11-25T06:23:40;14.50;54.00
3986;DHT22;2007;48.750;9.278;2023-11-25T06:26:09;14.50;54.00
3986;DHT22;2007;48.750;9.278;2023-11-25T06:28:40;14.50;54.10
3986;DHT22;2007;48.750;9.278;2023-11-25T06:31:08;14.50;54.00
3986;DHT22;2007;48.750;9.278;2023-11-25T06:33:38;14.50;54.00
3986;DHT22;2007;48.750;9.278;2023-11-25T06:36:08;14.50;54.10
3986;DHT22;2007;48.750;9.278;2023-11-25T06:38:37;14.50;54.00
3986;DHT22;2007;48.750;9.278;2023-11-25T06:41:06;14.50;54.10
3986;DHT22;2007;48.750;9.278;2023-11-25T06:43:35;14.50;54.10
3986;DHT22;2007;48.750;9.278;2023-11-25T06:46:05;14.50;54.10
3986;DHT22;2007;48.750;9.278;2023-11-25T06:48:33;14.50;54.10
3986;DHT22;2007;48.750;9.278;2023-11-25T06:51:01;14.50;54.10
3986;DHT22;2007;48.750;9.278;2023-11-25T06:53:30;14.50;54.10
3986;DHT22;2007;48.750;9.278;2023-11-25T06:55:58;14.50;54.10
3986;DHT22;2007;48.750;9.278;2023-11-25T06:58:28;14.50;54.10
3986;DHT22;2007;48.750;9.278;2023-11-25T07:00:56;14.50;54.10
3986;DHT22;2007;48.750;9.278;2023-11-25T07:03:27;14.50;54.10
3986;DHT22;2007;48.750;9.278;2023-11-25T07:05:56;14.50;54.10
3986;DHT22;2007;48.750;9.278;2023-11-25T07:08:24;14.50;54.10
3986;DHT22;2007;48.750;9.278;2023-11-25T07:10:52;14.50;54.10
3986;DHT22;2007;48.750;9.278;2023-11-25T07:13:21;14.40;54.00
3986;DHT22;2007;48.750;9.278;2023-11-25T07:15:51;14.40;54.00
3986;DHT22;2007;48.750;9.278;2023-11-25T07:18:19;14.40;54.00
3986;DHT22;2007;48.750;9.278;2023-11-25T07:20:49;14.40;54.00
3986;DHT22;2007;48.750;9.278;2023-11-25T07:23:22;14.50;54.10
3986;DHT22;2007;48.750;9.278;2023-11-25T07:25:50;14.40;54.00
3986;DHT22;2007;48.750;9.278;2023-11-25T07:28:17;14.40;54.00
3986;DHT22;2007;48.750;9.278;2023-11-25T07:30:47;14.40;54.00
3986;DHT22;2007;48.750;9.278;2023-11-25T07:33:17;14.40;54.00
3986;DHT22;2007;48.750;9.278;2023-11-25T07:35:46;14.40;54.00
3986;DHT22;2007;48.750;9.278;2023-11-25T07:38:13;14.40;54.00
3986;DHT22;2007;48.750;9.278;2023-11-25T07:40:42;14.40;54.00
3986;DHT22;2007;48.750;9.278;2023-11-25T07:43:09;14.40;54.00
3986;DHT22;2007;48.750;9.278;2023-11-25T07:45:40;14.40;54.00
3986;DHT22;2007;48.750;9.278;2023-11-25T07:48:08;14.40;54.00
3986;DHT22;2007;48.750;9.278;2023-11-25T07:50:37;14.40;54.00
3986;DHT22;2007;48.750;9.278;2023-11-25T07:53:14;14.40;54.00
3986;DHT22;2007;48.750;9.278;2023-11-25T07:55:42;14.40;54.00
3986;DHT22;2007;48.750;9.278;2023-11-25T07:58:11;14.40;54.00
3986;DHT22;2007;48.750;9.278;2023-11-25T08:00:39;14.40;54.00
3986;DHT22;2007;48.750;9.278;2023-11-25T08:03:08;14.40;54.00
3986;DHT22;2007;48.750;9.278;2023-11-25T08:05:37;14.40;54.00
3986;DHT22;2007;48.750;9.278;2023-11-25T08:08:05;14.40;54.00
3986;DHT22;2007;48.750;9.278;2023-11-25T08:10:33;14.40;54.00
3986;DHT22;2007;48.750;9.278;2023-11-25T08:13:02;14.40;54.00
3986;DHT22;2007;48.750;9.278;2023-11-25T08:15:31;14.40;54.00
3986;DHT22;2007;48.750;9.278;2023-11-25T08:17:59;14.40;54.00
3986;DHT22;2007;48.750;9.278;2023-11-25T08:20:27;14.40;54.00
3986;DHT22;2007;48.750;9.278;2023-11-25T08:22:56;14.40;54.00
3986;DHT22;2007;48.750;9.278;2023-11-25T08:25:24;14.40;54.00
3986;DHT22;2007;48.750;9.278;2023-11-25T08:27:52;14.40;54.00
3986;DHT22;2007;48.750;9.278;2023-11-25T08:30:20;14.40;54.00
3986;DHT22;2007;48.750;9.278;2023-11-25T08:32:48;14.40;54.00
3986;DHT22;2007;48.750;9.278;2023-11-25T08:35:16;14.40;54.00
3986;DHT22;2007;48.750;9.278;2023-11-25T08:37:44;14.40;54.00
3986;DHT22;2007;48.750;9.278;2023-11-25T08:40:16;14.40;54.00
3986;DHT22;2007;48.750;9.278;2023-11-25T08:42:48;14.40;54.00
3986;DHT22;2007;48.750;9.278;2023-11-25T08:45:17;14.40;54.10
3986;DHT22;2007;48.750;9.278;2023-11-25T08:47:46;14.40;54.00
3986;DHT22;2007;48.750;9.278;2023-11-25T08:50:14;14.40;54.00
3986;DHT22;2007;48.750;9.278;2023-11-25T08:52:43;14.40;54.00
3986;DHT22;2007;48.750;9.278;2023-11-25T08:55:14;14.40;54.00
3986;DHT22;2007;48.750;9.278;2023-11-25T08:57:47;14.40;54.00
3986;DHT22;2007;48.750;9.278;2023-11-25T09:00:15;14.40;54.00
3986;DHT22;2007;48.750;9.278;2023-11-25T09:02:47;14.40;54.10
3986;DHT22;2007;48.750;9.278;2023-11-25T09:05:18;14.40;54.00
3986;DHT22;2007;48.750;9.278;2023-11-25T09:07:49;14.40;54.00
3986;DHT22;2007;48.750;9.278;2023-11-25T09:10:18;14.40;54.00
3986;DHT22;2007;48.750;9.278;2023-11-25T09:12:47;14.40;54.00
3986;DHT22;2007;48.750;9.278;2023-11-25T09:15:18;14.40;54.00
3986;DHT22;2007;48.750;9.278;2023-11-25T09:17:46;14.40;54.00
3986;DHT22;2007;48.750;9.278;2023-11-25T09:20:16;14.40;54.00
3986;DHT22;2007;48.750;9.278;2023-11-25T09:22:44;14.40;54.00
3986;DHT22;2007;48.750;9.278;2023-11-25T09:25:12;14.40;54.00
3986;DHT22;2007;48.750;9.278;2023-11-25T09:27:41;14.40;54.00
3986;DHT22;2007;48.750;9.278;2023-11-25T09:30:13;14.40;54.00
3986;DHT22;2007;48.750;9.278;2023-11-25T09:32:42;14.40;54.00
3986;DHT22;2007;48.750;9.278;2023-11-25T09:35:11;14.40;54.00
3986;DHT22;2007;48.750;9.278;2023-11-25T09:37:40;14.40;54.00
3986;DHT22;2007;48.750;9.278;2023-11-25T09:40:10;14.40;54.00
3986;DHT22;2007;48.750;9.278;2023-11-25T09:42:42;14.40;54.00
3986;DHT22;2007;48.750;9.278;2023-11-25T09:45:13;14.30;53.90
3986;DHT22;2007;48.750;9.278;2023-11-25T09:47:43;14.30;53.90
3986;DHT22;2007;48.750;9.278;2023-11-25T09:50:12;14.40;54.00
3986;DHT22;2007;48.750;9.278;2023-11-25T09:52:47;14.30;53.90
3986;DHT22;2007;48.750;9.278;2023-11-25T09:55:17;14.30;53.90
3986;DHT22;2007;48.750;9.278;2023-11-25T09:57:47;14.40;54.00
3986;DHT22;2007;48.750;9.278;2023-11-25T10:00:19;14.30;53.90
3986;DHT22;2007;48.750;9.278;2023-11-25T10:02:51;14.40;53.90
3986;DHT22;2007;48.750;9.278;2023-11-25T10:05:20;14.30;53.90
3986;DHT22;2007;48.750;9.278;2023-11-25T10:07:48;14.30;53.90
3986;DHT22;2007;48.750;9.278;2023-11-25T10:10:17;14.30;53.90
3986;DHT22;2007;48.750;9.278;2023-11-25T10:12:51;14.30;53.90
3986;DHT22;2007;48.750;9.278;2023-11-25T10:15:21;14.30;53.90
3986;DHT22;2007;48.750;9.278;2023-11-25T10:17:49;14.30;53.90
3986;DHT22;2007;48.750;9.278;2023-11-25T10:20:18;14.30;53.90
3986;DHT22;2007;48.750;9.278;2023-11-25T10:22:48;14.30;53.90
3986;DHT22;2007;48.750;9.278;2023-11-25T10:25:17;14.30;53.90
3986;DHT22;2007;48.750;9.278;2023-11-25T10:27:45;14.30;53.90
3986;DHT22;2007;48.750;9.278;2023-11-25T10:30:14;14.30;53.90
3986;DHT22;2007;48.750;9.278;2023-11-25T10:32:43;14.30;53.90
3986;DHT22;2007;48.750;9.278;2023-11-25T10:35:11;14.30;53.90
3986;DHT22;2007;48.750;9.278;2023-11-25T10:37:40;14.30;53.90
3986;DHT22;2007;48.750;9.278;2023-11-25T10:40:09;14.30;53.90
3986;DHT22;2007;48.750;9.278;2023-11-25T10:42:40;14.30;53.90
3986;DHT22;2007;48.750;9.278;2023-11-25T10:45:16;14.30;53.90
3986;DHT22;2007;48.750;9.278;2023-11-25T10:47:45;14.30;53.90
3986;DHT22;2007;48.750;9.278;2023-11-25T10:50:13;14.30;53.90
3986;DHT22;2007;48.750;9.278;2023-11-25T10:52:42;14.30;53.90
3986;DHT22;2007;48.750;9.278;2023-11-25T10:55:12;14.30;54.00
3986;DHT22;2007;48.750;9.278;2023-11-25T10:57:43;14.30;53.90
3986;DHT22;2007;48.750;9.278;2023-11-25T11:00:13;14.30;53.90
3986;DHT22;2007;48.750;9.278;2023-11-25T11:02:48;14.30;53.90
3986;DHT22;2007;48.750;9.278;2023-11-25T11:05:21;14.30;53.90
3986;DHT22;2007;48.750;9.278;2023-11-25T11:07:58;14.30;54.00
3986;DHT22;2007;48.750;9.278;2023-11-25T11:10:34;14.30;53.90
3986;DHT22;2007;48.750;9.278;2023-11-25T11:13:07;14.30;53.90
3986;DHT22;2007;48.750;9.278;2023-11-25T11:15:37;14.30;53.90
3986;DHT22;2007;48.750;9.278;2023-11-25T11:18:14;14.30;53.90
3986;DHT22;2007;48.750;9.278;2023-11-25T11:20:45;14.30;54.00
3986;DHT22;2007;48.750;9.278;2023-11-25T11:23:15;14.30;53.90
3986;DHT22;2007;48.750;9.278;2023-11-25T11:26:03;14.30;54.00
3986;DHT22;2007;48.750;9.278;2023-11-25T11:28:40;14.30;54.00
3986;DHT22;2007;48.750;9.278;2023-11-25T11:34:32;14.30;53.90
3986;DHT22;2007;48.750;9.278;2023-11-25T11:37:00;14.30;53.90
3986;DHT22;2007;48.750;9.278;2023-11-25T11:39:32;14.30;53.90
3986;DHT22;2007;48.750;9.278;2023-11-25T11:42:25;14.30;53.90
3986;DHT22;2007;48.750;9.278;2023-11-25T11:45:00;14.30;53.90
3986;DHT22;2007;48.750;9.278;2023-11-25T11:47:51;14.30;53.90
3986;DHT22;2007;48.750;9.278;2023-11-25T11:50:22;14.30;53.90
3986;DHT22;2007;48.750;9.278;2023-11-25T11:53:13;14.30;53.90
3986;DHT22;2007;48.750;9.278;2023-11-25T11:55:43;14.30;53.80
3986;DHT22;2007;48.750;9.278;2023-11-25T11:58:16;14.30;53.90
3986;DHT22;2007;48.750;9.278;2023-11-25T12:00:46;14.30;53.90
3986;DHT22;2007;48.750;9.278;2023-11-25T12:03:15;14.30;53.90
3986;DHT22;2007;48.750;9.278;2023-11-25T12:05:45;14.30;54.50
3986;DHT22;2007;48.750;9.278;2023-11-25T12:08:13;14.30;53.90
3986;DHT22;2007;48.750;9.278;2023-11-25T12:10:41;14.30;53.80
3986;DHT22;2007;48.750;9.278;2023-11-25T12:13:09;14.30;53.80
3986;DHT22;2007;48.750;9.278;2023-11-25T12:15:39;14.30;53.80
3986;DHT22;2007;48.750;9.278;2023-11-25T12:18:10;14.30;53.80
3986;DHT22;2007;48.750;9.278;2023-11-25T12:20:42;14.30;53.90
3986;DHT22;2007;48.750;9.278;2023-11-25T12:23:11;14.30;53.80
3986;DHT22;2007;48.750;9.278;2023-11-25T12:25:39;14.30;53.80
3986;DHT22;2007;48.750;9.278;2023-11-25T12:28:09;14.30;53.80
3986;DHT22;2007;48.750;9.278;2023-11-25T12:30:38;14.20;53.80
3986;DHT22;2007;48.750;9.278;2023-11-25T12:33:07;14.30;53.90
3986;DHT22;2007;48.750;9.278;2023-11-25T12:35:36;14.30;53.90
3986;DHT22;2007;48.750;9.278;2023-11-25T12:38:05;14.20;53.90
3986;DHT22;2007;48.750;9.278;2023-11-25T12:40:43;14.30;53.90
3986;DHT22;2007;48.750;9.278;2023-11-25T12:43:12;14.30;53.90
3986;DHT22;2007;48.750;9.278;2023-11-25T12:45:42;14.20;53.80
3986;DHT22;2007;48.750;9.278;2023-11-25T12:48:12;14.20;53.80
3986;DHT22;2007;48.750;9.278;2023-11-25T12:50:58;14.20;53.90
3986;DHT22;2007;48.750;9.278;2023-11-25T12:53:26;14.20;53.80
3986;DHT22;2007;48.750;9.278;2023-11-25T12:55:56;14.20;53.80
3986;DHT22;2007;48.750;9.278;2023-11-25T12:58:26;14.20;53.80
3986;DHT22;2007;48.750;9.278;2023-11-25T13:00:56;14.20;53.90
3986;DHT22;2007;48.750;9.278;2023-11-25T13:03:25;14.20;53.90
3986;DHT22;2007;48.750;9.278;2023-11-25T13:05:57;14.20;53.80
3986;DHT22;2007;48.750;9.278;2023-11-25T13:08:27;14.20;53.90
3986;DHT22;2007;48.750;9.278;2023-11-25T13:10:58;14.20;53.90
3986;DHT22;2007;48.750;9.278;2023-11-25T13:13:27;14.20;53.90
3986;DHT22;2007;48.750;9.278;2023-11-25T13:16:00;14.20;53.90
3986;DHT22;2007;48.750;9.278;2023-11-25T13:18:31;14.20;53.90
3986;DHT22;2007;48.750;9.278;2023-11-25T13:20:59;14.20;53.90
3986;DHT22;2007;48.750;9.278;2023-11-25T13:23:33;14.20;53.90
3986;DHT22;2007;48.750;9.278;2023-11-25T13:26:02;14.30;53.90
3986;DHT22;2007;48.750;9.278;2023-11-25T13:28:31;14.20;53.90
3986;DHT22;2007;48.750;9.278;2023-11-25T13:30:59;14.20;53.90
3986;DHT22;2007;48.750;9.278;2023-11-25T13:33:27;14.20;53.90
3986;DHT22;2007;48.750;9.278;2023-11-25T13:35:56;14.20;53.90
3986;DHT22;2007;48.750;9.278;2023-11-25T13:38:24;14.20;53.90
3986;DHT22;2007;48.750;9.278;2023-11-25T13:40:51;14.20;53.90
3986;DHT22;2007;48.750;9.278;2023-11-25T13:43:22;14.20;53.90
3986;DHT22;2007;48.750;9.278;2023-11-25T13:45:50;14.20;53.90
3986;DHT22;2007;48.750;9.278;2023-11-25T13:48:18;14.20;53.90
3986;DHT22;2007;48.750;9.278;2023-11-25T13:50:46;14.20;53.90
3986;DHT22;2007;48.750;9.278;2023-11-25T13:53:14;14.20;53.90
3986;DHT22;2007;48.750;9.278;2023-11-25T13:55:45;14.20;54.00
3986;DHT22;2007;48.750;9.278;2023-11-25T13:58:15;14.20;53.90
3986;DHT22;2007;48.750;9.278;2023-11-25T14:00:45;14.20;53.90
3986;DHT22;2007;48.750;9.278;2023-11-25T14:03:13;14.20;54.00
3986;DHT22;2007;48.750;9.278;2023-11-25T14:05:42;14.20;53.90
3986;DHT22;2007;48.750;9.278;2023-11-25T14:08:11;14.20;54.00
3986;DHT22;2007;48.750;9.278;2023-11-25T14:10:41;14.20;53.90
3986;DHT22;2007;48.750;9.278;2023-11-25T14:13:10;14.20;53.90
3986;DHT22;2007;48.750;9.278;2023-11-25T14:15:40;14.20;53.90
3986;DHT22;2007;48.750;9.278;2023-11-25T14:18:10;14.20;53.90
3986;DHT22;2007;48.750;9.278;2023-11-25T14:20:38;14.20;54.00
3986;DHT22;2007;48.750;9.278;2023-11-25T14:23:06;14.20;53.90
3986;DHT22;2007;48.750;9.278;2023-11-25T14:25:34;14.20;54.00
3986;DHT22;2007;48.750;9.278;2023-11-25T14:28:03;14.20;54.00
3986;DHT22;2007;48.750;9.278;2023-11-25T14:30:31;14.20;54.00
3986;DHT22;2007;48.750;9.278;2023-11-25T14:33:00;14.20;53.90
3986;DHT22;2007;48.750;9.278;2023-11-25T14:35:32;14.20;54.00
3986;DHT22;2007;48.750;9.278;2023-11-25T14:38:00;14.20;54.00
3986;DHT22;2007;48.750;9.278;2023-11-25T14:40:31;14.20;54.00
3986;DHT22;2007;48.750;9.278;2023-11-25T14:43:03;14.20;54.00
3986;DHT22;2007;48.750;9.278;2023-11-25T14:45:32;14.20;54.00
3986;DHT22;2007;48.750;9.278;2023-11-25T14:48:01;14.20;54.00
3986;DHT22;2007;48.750;9.278;2023-11-25T14:50:31;14.20;54.00
3986;DHT22;2007;48.750;9.278;2023-11-25T14:53:04;14.20;54.00
3986;DHT22;2007;48.750;9.278;2023-11-25T14:55:33;14.20;54.00
3986;DHT22;2007;48.750;9.278;2023-11-25T14:58:01;14.20;54.00
3986;DHT22;2007;48.750;9.278;2023-11-25T15:00:30;14.20;54.00
3986;DHT22;2007;48.750;9.278;2023-11-25T15:02:59;14.20;54.00
3986;DHT22;2007;48.750;9.278;2023-11-25T15:05:27;14.20;54.00
3986;DHT22;2007;48.750;9.278;2023-11-25T15:07:56;14.20;54.00
3986;DHT22;2007;48.750;9.278;2023-11-25T15:10:24;14.20;54.00
3986;DHT22;2007;48.750;9.278;2023-11-25T15:12:53;14.20;54.00
3986;DHT22;2007;48.750;9.278;2023-11-25T15:15:22;14.20;54.00
3986;DHT22;2007;48.750;9.278;2023-11-25T15:17:51;14.20;54.00
3986;DHT22;2007;48.750;9.278;2023-11-25T15:20:19;14.20;54.00
3986;DHT22;2007;48.750;9.278;2023-11-25T15:22:49;14.20;54.00
3986;DHT22;2007;48.750;9.278;2023-11-25T15:25:19;14.20;54.00
3986;DHT22;2007;48.750;9.278;2023-11-25T15:27:48;14.20;54.00
3986;DHT22;2007;48.750;9.278;2023-11-25T15:30:16;14.20;54.00
3986;DHT22;2007;48.750;9.278;2023-11-25T15:32:45;14.20;54.00
3986;DHT22;2007;48.750;9.278;2023-11-25T15:35:12;14.20;54.00
3986;DHT22;2007;48.750;9.278;2023-11-25T15:37:40;14.20;54.00
3986;DHT22;2007;48.750;9.278;2023-11-25T15:40:10;14.20;54.70
3986;DHT22;2007;48.750;9.278;2023-11-25T15:42:41;14.20;54.00
3986;DHT22;2007;48.750;9.278;2023-11-25T15:45:12;14.20;54.00
3986;DHT22;2007;48.750;9.278;2023-11-25T15:47:41;14.20;54.00
3986;DHT22;2007;48.750;9.278;2023-11-25T15:50:09;14.20;54.00
3986;DHT22;2007;48.750;9.278;2023-11-25T15:52:37;14.20;54.00
3986;DHT22;2007;48.750;9.278;2023-11-25T15:55:06;14.20;54.00
3986;DHT22;2007;48.750;9.278;2023-11-25T15:57:37;14.20;54.00
3986;DHT22;2007;48.750;9.278;2023-11-25T16:00:08;14.20;54.10
3986;DHT22;2007;48.750;9.278;2023-11-25T16:02:41;14.20;54.10
3986;DHT22;2007;48.750;9.278;2023-11-25T16:05:11;14.20;54.10
3986;DHT22;2007;48.750;9.278;2023-11-25T16:07:40;14.20;54.10
3986;DHT22;2007;48.750;9.278;2023-11-25T16:10:08;14.20;54.10
3986;DHT22;2007;48.750;9.278;2023-11-25T16:12:37;14.20;54.10
3986;DHT22;2007;48.750;9.278;2023-11-25T16:15:08;14.20;54.10
3986;DHT22;2007;48.750;9.278;2023-11-25T16:17:36;14.20;54.10
3986;DHT22;2007;48.750;9.278;2023-11-25T16:20:06;14.10;54.00